Terminal Aerodrome Forecast
Issued by NWS

Home | Current Version | Previous Version | Text Only | Print | Product List | Glossary On
Versions: 1 2 3 4 5 6 7 8 9 10 11 12
000
FTUS45 KRIW 280500
TAFBPI
TAF
KBPI 280529Z 2806/2906 VRB04KT P6SM BKN070
     FM281000 VRB05KT P6SM VCFG FEW005 SCT060
     FM281600 VRB03KT P6SM SCT060
     FM290100 VRB05KT P6SM SKC=

USA.gov is the U.S. government's official web portal to all federal, state and local government web resources and services.